Latest Weather Observations for Tewantin

IDQ60801

Issued at 7:02 am EST Sunday 19 November 2017 (issued every 30 minutes, with the page automatically refreshed every 10 minutes)

About weather observations | Map of weather stations | Latest weather observations for QLD | Other Formats
Station Details ID: 040908 Name: TEWANTIN RSL PARK Lat: -26.39 Lon: 153.04 Height: 6.4 m
Data from the previous 72 hours. | See also: Recent months at Tewantin
Date/Time
EST
Temp
°C
App
Temp
°C
Dew
Point
°C
Rel
Hum
%
Delta-T
°C
Wind Press
QNH
hPa
Press
MSL
hPa
Rain since
9am
mm
Dir  Spd
km/h
Gust
km/h
Spd
kts
Gust
kts
19/07:00am 18.4 18.4 18.1 98 0.2 SSE 15 28 8 15 1016.4 1016.4 39.6
19/06:30am 18.5 20.3 18.3 99 0.1 SW 6 9 3 5 1016.1 1016.1 37.6
19/06:00am 18.1 18.8 17.9 99 0.1 S 11 15 6 8 1015.9 1015.9 37.4
19/05:30am 17.9 18.6 17.9 100 0.0 ESE 11 22 6 12 1015.6 1015.6 37.2
19/05:00am 17.0 17.6 16.8 99 0.1 SSW 9 15 5 8 1015.1 1015.1 35.4
19/04:30am 16.8 17.3 16.6 99 0.1 SSW 9 15 5 8 1015.0 1015.0 35.4
19/04:00am 17.1 18.1 16.9 99 0.1 S 7 11 4 6 1014.6 1014.6 35.4
19/03:30am 17.2 18.5 17.0 99 0.1 SSW 6 9 3 5 1014.4 1014.4 35.4
19/03:00am 17.2 18.3 17.0 99 0.1 WSW 7 11 4 6 1014.8 1014.8 35.4
19/02:30am 17.4 19.9 17.2 99 0.1 CALM 0 4 0 2 1015.3 1015.3 32.4
19/02:00am 17.7 20.3 17.5 99 0.1 CALM 0 6 0 3 1015.3 1015.3 29.6
19/01:30am 17.7 19.2 17.5 99 0.1 SSW 6 9 3 5 1015.1 1015.1 27.4
19/01:00am 17.5 19.3 17.3 99 0.1 E 4 13 2 7 1015.4 1015.4 23.6
19/12:30am 17.2 17.5 17.0 99 0.1 SSW 11 15 6 8 1015.5 1015.5 23.6
19/12:00am 16.9 17.1 16.7 99 0.1 S 11 17 6 9 1016.0 1016.0 23.6
 
Date/Time
EST
Temp
°C
App
Temp
°C
Dew
Point
°C
Rel
Hum
%
Delta-T
°C
Wind Press
QNH
hPa
Press
MSL
hPa
Rain since
9am
mm
Dir  Spd
km/h
Gust
km/h
Spd
kts
Gust
kts
18/11:30pm 16.6 17.0 16.4 99 0.1 S 9 11 5 6 1016.6 1016.6 23.6
18/11:00pm 16.4 18.5 16.2 99 0.1 CALM 0 0 0 0 1016.8 1016.8 23.6
18/10:30pm 16.4 18.5 16.2 99 0.1 CALM 0 0 0 0 1017.0 1017.0 23.6
18/10:00pm 16.5 18.2 16.3 99 0.1 SW 2 7 1 4 1017.3 1017.3 23.6
18/09:30pm 16.9 18.0 16.7 99 0.1 SSW 6 7 3 4 1017.3 1017.3 23.6
18/09:00pm 17.0 18.9 16.8 99 0.1 SSW 2 6 1 3 1017.2 1017.2 23.6
18/08:30pm 17.4 18.5 17.2 99 0.1 SSW 7 9 4 5 1017.2 1017.2 23.6
18/08:00pm 17.5 19.3 17.3 99 0.1 SW 4 7 2 4 1017.2 1017.2 23.6
18/07:30pm 17.6 19.0 17.4 99 0.1 SW 6 9 3 5 1017.2 1017.2 23.6
18/07:00pm 17.6 19.0 17.4 99 0.1 WSW 6 9 3 5 1017.2 1017.2 23.6
18/06:30pm 17.8 19.3 17.6 99 0.1 SW 6 9 3 5 1017.1 1017.1 23.2
18/06:00pm 17.6 18.8 17.4 99 0.1 SW 7 11 4 6 1016.7 1016.7 23.0
18/05:30pm 17.7 19.2 17.5 99 0.1 SW 6 9 3 5 1016.3 1016.3 22.2
18/05:00pm 18.0 19.4 17.8 99 0.1 SW 7 9 4 5 1015.9 1015.9 21.8
18/04:30pm 17.7 18.6 17.5 99 0.1 S 9 15 5 8 1015.5 1015.5 20.6
18/04:00pm 18.2 18.9 18.0 99 0.1 S 11 19 6 10 1015.4 1015.4 16.4
18/03:30pm 18.5 19.7 18.3 99 0.1 S 9 13 5 7 1015.4 1015.4 14.8
18/03:00pm 18.4 19.2 18.2 99 0.1 S 11 15 6 8 1015.4 1015.4 13.6
18/02:30pm 18.9 20.3 18.7 99 0.1 SSW 9 15 5 8 1015.5 1015.5 12.6
18/02:00pm 18.8 20.2 18.6 99 0.1 SSW 9 15 5 8 1015.8 1015.8 12.0
18/01:30pm 18.7 20.4 18.5 99 0.1 SW 7 13 4 7 1016.0 1016.0 11.4
18/01:00pm 18.8 20.5 18.6 99 0.1 S 7 11 4 6 1016.4 1016.4 9.8
18/12:30pm 19.3 21.9 18.5 95 0.5 WSW 2 6 1 3 1016.4 1016.4 7.8
18/12:00pm 19.3 21.3 18.8 97 0.3 WNW 6 9 3 5 1016.5 1016.5 7.4
18/11:30am 18.9 20.5 18.2 96 0.4 WNW 7 11 4 6 1016.7 1016.7 7.0
18/11:00am 18.3 19.8 18.1 99 0.1 WNW 7 11 4 6 1016.7 1016.7 6.8
18/10:30am 18.3 19.4 18.1 99 0.1 WNW 9 15 5 8 1017.1 1017.1 6.0
18/10:00am 18.1 19.7 17.9 99 0.1 N 6 7 3 4 1017.6 1017.6 5.2
18/09:30am 17.9 18.5 17.7 99 0.1 N 11 17 6 9 1017.8 1017.8 3.6
18/09:00am 17.8 17.6 17.6 99 0.1 N 15 22 8 12 1017.7 1017.7 4.0
18/08:30am 18.6 19.7 18.1 97 0.3 SSE 9 15 5 8 1017.6 1017.6 2.4
18/08:00am 20.2 20.8 17.8 86 1.5 SE 11 17 6 9 1017.8 1017.8 0.0
18/07:30am 20.0 21.3 17.2 84 1.7 W 6 13 3 7 1017.5 1017.5 0.0
18/07:00am 19.1 20.2 17.2 89 1.2 WNW 7 11 4 6 1017.4 1017.4 0.0
18/06:30am 18.9 19.7 17.2 90 1.0 WNW 9 13 5 7 1016.8 1016.8 0.0
18/06:00am 18.7 19.8 17.0 90 1.0 WNW 7 15 4 8 1016.8 1016.8 0.0
18/05:30am 18.7 19.9 17.4 92 0.8 NW 7 13 4 7 1016.6 1016.6 0.0
18/05:00am 19.4 19.3 18.7 96 0.4 NNE 17 22 9 12 1016.2 1016.2 0.0
18/04:30am 19.8 19.6 18.5 92 0.8 NE 17 26 9 14 1016.0 1016.0 0.0
18/04:00am 21.8 22.2 16.3 71 3.3 ENE 9 13 5 7 1015.5 1015.5 0.0
18/03:30am 21.5 21.9 17.3 77 2.6 NE 11 19 6 10 1015.4 1015.4 0.0
18/03:00am 21.8 22.0 16.7 73 3.1 E 11 19 6 10 1015.3 1015.3 0.0
18/02:30am 20.2 21.4 15.8 76 2.6 S 4 7 2 4 1015.1 1015.1 0.0
18/02:00am 19.9 20.6 16.0 78 2.3 S 7 9 4 5 1015.1 1015.1 0.0
18/01:30am 20.4 21.3 15.0 71 3.2 SE 4 9 2 5 1015.3 1015.3 0.0
18/01:00am 21.2 21.0 14.6 66 3.9 E 9 15 5 8 1015.6 1015.6 0.0
18/12:30am 20.9 20.9 14.3 66 3.8 E 7 9 4 5 1016.1 1016.1 0.0
18/12:00am 21.2 21.4 14.6 66 3.9 ENE 7 9 4 5 1016.5 1016.5 0.0
 
Date/Time
EST
Temp
°C
App
Temp
°C
Dew
Point
°C
Rel
Hum
%
Delta-T
°C
Wind Press
QNH
hPa
Press
MSL
hPa
Rain since
9am
mm
Dir  Spd
km/h
Gust
km/h
Spd
kts
Gust
kts
17/11:30pm 21.5 21.1 14.2 63 4.3 ENE 9 13 5 7 1016.8 1016.8 0.0
17/11:00pm 21.8 21.3 14.9 65 4.1 ENE 11 17 6 9 1016.9 1016.9 0.0
17/10:30pm 21.6 21.5 15.0 66 3.9 ENE 9 13 5 7 1017.1 1017.1 0.0
17/10:00pm 21.5 21.2 14.4 64 4.1 ENE 9 11 5 6 1017.4 1017.4 0.0
17/09:30pm 21.6 21.3 14.3 63 4.3 ENE 9 13 5 7 1017.4 1017.4 0.0
17/09:00pm 21.6 21.3 14.3 63 4.3 ENE 9 15 5 8 1017.1 1017.1 0.0
17/08:30pm 21.7 21.3 15.1 66 3.9 ENE 11 17 6 9 1016.9 1016.9 0.0
17/08:00pm 21.4 21.6 14.6 65 4.0 ENE 7 9 4 5 1016.7 1016.7 0.0
17/07:30pm 21.8 21.5 14.4 63 4.3 E 9 13 5 7 1016.8 1016.8 0.0
17/07:00pm 22.0 21.7 14.4 62 4.4 E 9 13 5 7 1016.7 1016.7 0.0
17/06:30pm 22.1 21.8 14.5 62 4.5 ENE 9 17 5 9 1016.3 1016.3 0.0
17/06:00pm 22.7 21.4 14.8 61 4.7 E 15 24 8 13 1015.9 1015.9 0.0
17/05:30pm 22.8 21.7 14.4 59 4.9 E 13 19 7 10 1015.8 1015.8 0.0
17/05:00pm 23.0 21.5 14.3 58 5.1 ESE 15 22 8 12 1015.6 1015.6 0.0
17/04:30pm 23.1 21.5 14.9 60 4.9 ESE 17 26 9 14 1015.8 1015.8 0.0
17/04:00pm 23.2 21.7 15.3 61 4.7 E 17 24 9 13 1016.1 1016.1 0.0
17/03:30pm 23.8 22.6 16.1 62 4.7 ESE 17 24 9 13 1016.2 1016.2 0.0
17/03:00pm 23.9 22.6 15.9 61 4.8 ESE 17 26 9 14 1016.5 1016.5 0.0
17/02:30pm 24.2 22.9 15.7 59 5.1 ESE 17 24 9 13 1016.8 1016.8 0.0
17/02:00pm 24.2 23.0 15.1 56 5.4 E 15 22 8 12 1017.0 1017.0 0.0
17/01:30pm 24.9 24.4 15.8 57 5.5 E 13 20 7 11 1017.1 1017.1 0.0
17/01:00pm 25.1 24.0 15.4 55 5.8 E 15 28 8 15 1017.5 1017.5 0.0
17/12:30pm 24.4 23.4 14.5 54 5.9 ESE 13 20 7 11 1017.6 1017.6 0.0
17/12:00pm 24.4 22.8 12.7 48 6.7 ESE 13 22 7 12 1017.8 1017.8 0.0
17/11:30am 24.5 23.1 14.6 54 5.9 E 15 24 8 13 1018.0 1018.0 0.0
17/11:00am 24.9 23.7 15.0 54 5.9 ESE 15 20 8 11 1018.3 1018.3 0.0
17/10:30am 24.9 24.4 15.8 57 5.5 SE 13 20 7 11 1018.5 1018.5 0.0
17/10:00am 23.9 22.9 13.4 51 6.1 SE 11 24 6 13 1018.5 1018.5 0.0
17/09:30am 24.6 23.3 13.8 51 6.3 E 13 20 7 11 1018.6 1018.6 0.0
17/09:00am 23.8 22.2 12.8 50 6.3 E 13 20 7 11 1018.4 1018.4 0.0
17/08:30am 23.9 23.3 14.6 56 5.5 ENE 11 15 6 8 1018.2 1018.2 0.0
17/08:00am 23.9 25.3 15.4 59 5.1 NE 2 7 1 4 1017.9 1017.9 0.0
17/07:30am 22.2 23.1 16.2 69 3.6 SSE 6 9 3 5 1017.7 1017.7 0.0
17/07:00am 21.9 22.7 16.4 71 3.3 S 7 11 4 6 1017.5 1017.5 0.0
17/06:30am 20.4 20.5 15.6 74 2.9 SSE 9 13 5 7 1017.3 1017.3 0.0
17/06:00am 19.9 21.6 16.3 80 2.2 SSW 2 6 1 3 1016.9 1016.9 0.0
17/05:30am 18.4 20.4 16.0 86 1.4 CALM 0 0 0 0 1016.7 1016.7 0.0
17/05:00am 17.4 19.4 16.1 92 0.8 CALM 0 0 0 0 1016.5 1016.5 0.0
17/04:30am 17.6 18.5 16.5 93 0.7 S 7 11 4 6 1016.4 1016.4 0.0
17/04:00am 17.5 19.5 16.0 91 0.9 CALM 0 0 0 0 1016.2 1016.2 0.0
17/03:30am 18.0 19.7 16.2 89 1.1 SE 2 7 1 4 1016.2 1016.2 0.0
17/03:00am 18.2 19.4 16.0 87 1.3 SW 4 7 2 4 1016.4 1016.4 0.0
17/02:30am 18.4 20.6 16.4 88 1.2 CALM 0 0 0 0 1016.3 1016.3 0.0
17/02:00am 18.5 20.5 16.1 86 1.4 CALM 0 6 0 3 1016.4 1016.4 0.0
17/01:30am 18.5 19.5 16.3 87 1.3 WSW 6 7 3 4 1016.4 1016.4 0.0
17/01:00am 18.5 19.3 15.9 85 1.5 SW 6 7 3 4 1016.7 1016.7 0.0
17/12:30am 18.7 19.8 16.5 87 1.3 SW 6 7 3 4 1016.9 1016.9 0.0
17/12:00am 19.0 20.8 16.4 85 1.6 SW 2 7 1 4 1017.2 1017.2 0.0
 
Date/Time
EST
Temp
°C
App
Temp
°C
Dew
Point
°C
Rel
Hum
%
Delta-T
°C
Wind Press
QNH
hPa
Press
MSL
hPa
Rain since
9am
mm
Dir  Spd
km/h
Gust
km/h
Spd
kts
Gust
kts
16/11:30pm 19.2 20.4 16.8 86 1.4 SSW 6 7 3 4 1017.2 1017.2 0.0
16/11:00pm 19.5 21.3 16.5 83 1.8 SW 2 6 1 3 1017.4 1017.4 0.0
16/10:30pm 20.1 22.4 16.7 81 2.1 CALM 0 0 0 0 1017.4 1017.4 0.0
16/10:00pm 20.3 22.6 16.7 80 2.2 CALM 0 0 0 0 1017.6 1017.6 0.0
16/09:30pm 21.0 22.9 16.6 76 2.7 NE 2 6 1 3 1017.7 1017.7 0.0
16/09:00pm 21.0 22.1 15.5 71 3.3 E 4 7 2 4 1017.6 1017.6 0.0
16/08:30pm 21.2 21.9 15.7 71 3.3 ENE 6 7 3 4 1017.1 1017.1 0.0
16/08:00pm 21.2 22.1 16.0 72 3.1 NE 6 9 3 5 1016.9 1016.9 0.0
16/07:30pm 21.6 22.2 15.7 69 3.5 ENE 7 9 4 5 1016.6 1016.6 0.0
16/07:00pm 21.6 22.3 15.7 69 3.5 ENE 6 9 3 5 1016.4 1016.4 0.0
16/06:30pm 22.0 22.2 15.8 68 3.7 ENE 9 13 5 7 1015.9 1015.9 0.0
16/06:00pm 22.6 23.0 16.4 68 3.8 NE 9 13 5 7 1015.6 1015.6 0.0
16/05:30pm 22.9 22.4 16.0 65 4.2 NE 13 20 7 11 1015.3 1015.3 0.0
16/05:00pm 23.2 22.7 16.0 64 4.4 NE 13 22 7 12 1014.9 1014.9 0.0
16/04:30pm 23.5 23.1 16.3 64 4.4 NE 13 22 7 12 1014.7 1014.7 0.0
16/04:00pm 23.7 22.9 16.0 62 4.7 ENE 15 22 8 12 1014.9 1014.9 0.0
16/03:30pm 23.7 22.0 14.7 57 5.3 ENE 17 24 9 13 1014.7 1014.7 0.0
16/03:00pm 24.3 23.1 15.0 56 5.6 ENE 15 24 8 13 1014.8 1014.8 0.0
16/02:30pm 24.5 23.0 15.4 57 5.5 ENE 17 26 9 14 1014.8 1014.8 0.0
16/02:00pm 24.8 23.6 16.2 58 5.3 ENE 17 26 9 14 1015.0 1015.0 0.0
16/01:30pm 24.9 23.8 16.3 59 5.3 NE 17 28 9 15 1015.3 1015.3 0.0
16/01:00pm 25.5 24.7 16.1 56 5.7 ENE 15 22 8 12 1015.8 1015.8 0.0
16/12:30pm 25.0 23.4 15.0 53 6.0 ENE 17 22 9 12 1016.1 1016.1 0.0
16/12:00pm 25.6 24.6 15.6 54 6.1 ENE 15 22 8 12 1016.3 1016.3 0.0
16/11:30am 25.1 23.1 11.6 42 7.7 ENE 13 19 7 10 1016.7 1016.7 0.0
16/11:00am 25.6 25.1 15.9 55 5.9 NE 13 19 7 10 1016.9 1016.9 0.0
16/10:30am 24.9 24.4 15.0 54 5.9 NE 11 17 6 9 1017.2 1017.2 0.0
16/10:00am 25.1 24.9 16.8 60 5.1 NNE 13 20 7 11 1017.2 1017.2 0.0
16/09:30am 24.5 24.6 15.4 57 5.5 NE 9 17 5 9 1017.4 1017.4 0.0
16/09:00am 24.2 24.4 15.7 59 5.1 N 9 13 5 7 1017.3 1017.3 0.0
16/08:30am 22.8 23.5 15.6 64 4.3 N 6 9 3 5 1017.6 1017.6 0.0
16/08:00am 23.0 23.4 14.8 60 4.9 NE 6 7 3 4 1017.6 1017.6 0.0
16/07:30am 22.3 23.3 15.4 65 4.1 NW 4 9 2 5 1017.5 1017.5 0.0

Other Formats:

Comma delimited format used in spreadsheet applications
http://www.bom.gov.au/fwo/IDQ60801/IDQ60801.94570.axf

JavaScript Object Notation format (JSON) in row-major order
http://www.bom.gov.au/fwo/IDQ60801/IDQ60801.94570.json